Vanetia, Texas
Current Conditions -  °F | °C
As of 12:15 PM on Friday 31 Oct 2014 (Local Time) from KLHB Reporting Station
Clear Clear  
Wind Chill: 21°   Ceiling: Unl
Heat Index: 21°   Visibility: 10mi
Dew Point:   Wind: 18mph
Humidity: 39%   Direction: 330°NNW
Pressure: 30.28"   Gusts: NA
Location:  31.2206°N, 96.2362°W
Report Text: KLHB 311715Z AUTO 33016KT 10SM CLR 21/07 A3028 RMK AO2 T02140070
Loading
Personal Weather Stations






























Interactive Weather Map
Tropical Storm Tracking
New forecast layout! Learn more

10-Day Weather Forecast

Advertisements
Track Severe Weather on mobile